Terminal Aerodrome Forecast
Issued by NWS

Home | Current Version | Previous Version | Graphics & Text | Print | Product List | Glossary On
Versions: 1 2 3 4 5 6 7 8 9 10 11 12 13 14 15 16 17
000
FTUS43 KOAX 232320
TAFCDR
TAF
KCDR 232320Z 2400/2424 29016G24KT P6SM VCTS BKN050CB OVC100
     FM240100 33018G28KT 5SM -RA BKN015 OVC025
     FM241200 32015G25KT P6SM VCSH SCT007 OVC015=

USA.gov is the U.S. government's official web portal to all federal, state and local government web resources and services.